createdAt,value
2022-11-17T00:01:55.432Z,94.15
2022-11-17T00:04:30.097Z,94.24
2022-11-17T00:07:02.127Z,94.24
2022-11-17T00:09:34.011Z,94.16
2022-11-17T00:12:29.791Z,94.17
2022-11-17T00:15:04.420Z,94.23
2022-11-17T00:17:36.233Z,94.20
2022-11-17T00:20:30.058Z,94.11
2022-11-17T00:23:01.898Z,94.11
2022-11-17T00:25:34.220Z,94.03
2022-11-17T00:28:06.558Z,94.27
2022-11-17T00:30:55.063Z,94.38
2022-11-17T00:33:44.441Z,94.28
2022-11-17T00:36:17.753Z,94.31
2022-11-17T00:38:49.571Z,94.08
2022-11-17T00:41:21.341Z,94.09
2022-11-17T00:43:53.186Z,94.04
2022-11-17T00:46:25.233Z,94.25
2022-11-17T00:48:57.174Z,94.29
2022-11-17T00:51:28.986Z,94.09
2022-11-17T00:54:00.907Z,94.01
2022-11-17T00:56:32.794Z,94.18
2022-11-17T00:59:04.950Z,94.21
2022-11-17T01:01:37.385Z,94.15
2022-11-17T01:04:09.721Z,94.33
2022-11-17T01:06:43.912Z,94.41
2022-11-17T01:09:17.894Z,94.53
2022-11-17T01:11:51.458Z,94.50
2022-11-17T01:14:25.692Z,94.31
2022-11-17T01:16:57.751Z,94.34
2022-11-17T01:19:29.774Z,94.25
2022-11-17T01:22:01.882Z,94.54
2022-11-17T01:24:33.730Z,94.32
2022-11-17T01:27:05.565Z,94.48
2022-11-17T01:29:37.533Z,94.39
2022-11-17T01:32:09.430Z,94.37
2022-11-17T01:34:41.705Z,94.47
2022-11-17T01:37:22.428Z,94.52
2022-11-17T01:39:54.453Z,94.42
2022-11-17T01:42:28.185Z,94.42
2022-11-17T01:45:05.693Z,94.50
2022-11-17T01:47:43.832Z,94.46
2022-11-17T01:50:35.431Z,94.47
2022-11-17T01:53:09.857Z,94.38
2022-11-17T01:55:47.270Z,94.51
2022-11-17T01:58:22.680Z,94.49
2022-11-17T02:00:55.443Z,94.84
2022-11-17T02:03:28.149Z,94.66
2022-11-17T02:06:07.313Z,94.59
2022-11-17T02:08:42.250Z,94.71
2022-11-17T02:11:17.287Z,94.90
2022-11-17T02:13:50.245Z,95.08
2022-11-17T02:16:22.050Z,95.03
2022-11-17T02:18:54.117Z,94.86
2022-11-17T02:21:59.161Z,94.84
2022-11-17T02:24:58.006Z,94.99
2022-11-17T02:27:54.615Z,95.03
2022-11-17T02:30:31.309Z,95.24
2022-11-17T02:33:08.771Z,95.09
2022-11-17T02:35:47.815Z,95.07
2022-11-17T02:38:30.830Z,94.85
2022-11-17T02:41:10.349Z,95.08
2022-11-17T02:44:03.695Z,95.21
2022-11-17T02:46:42.060Z,95.13
2022-11-17T02:49:14.844Z,95.12
2022-11-17T02:51:49.344Z,95.13
2022-11-17T02:54:22.763Z,95.13
2022-11-17T02:56:54.693Z,95.12
2022-11-17T02:59:32.022Z,95.17
2022-11-17T03:02:21.148Z,95.44
2022-11-17T03:05:04.568Z,95.35
2022-11-17T03:07:58.517Z,95.18
2022-11-17T03:10:42.445Z,94.94
2022-11-17T03:13:19.657Z,94.91
2022-11-17T03:15:56.036Z,94.78
2022-11-17T03:18:36.663Z,94.60
2022-11-17T03:21:17.441Z,94.31
2022-11-17T03:23:52.344Z,94.32
2022-11-17T03:26:28.415Z,94.30
2022-11-17T03:29:01.175Z,94.59
2022-11-17T03:31:36.317Z,94.49
2022-11-17T03:34:12.037Z,94.13
2022-11-17T03:36:49.212Z,94.01
2022-11-17T03:39:29.023Z,94.15
2022-11-17T03:42:04.364Z,94.24
2022-11-17T03:44:39.820Z,94.48
2022-11-17T03:47:13.731Z,94.60
2022-11-17T03:49:50.660Z,94.68
2022-11-17T03:52:22.719Z,94.69
2022-11-17T03:54:54.864Z,94.53
2022-11-17T03:57:34.312Z,94.61
2022-11-17T04:00:08.288Z,94.29
2022-11-17T04:02:47.610Z,94.41
2022-11-17T04:05:20.592Z,94.35
2022-11-17T04:07:52.352Z,94.56
2022-11-17T04:10:26.759Z,94.57
2022-11-17T04:13:15.840Z,94.70
2022-11-17T04:15:59.626Z,94.64
2022-11-17T04:18:31.502Z,94.73
2022-11-17T04:21:03.353Z,94.67
2022-11-17T04:23:35.411Z,94.47
2022-11-17T04:26:24.896Z,94.34
2022-11-17T04:28:56.641Z,94.45
2022-11-17T04:31:30.319Z,94.36
2022-11-17T04:34:04.166Z,94.65
2022-11-17T04:36:40.790Z,94.56
2022-11-17T04:39:14.377Z,94.61
2022-11-17T04:41:56.967Z,94.40
2022-11-17T04:44:30.163Z,94.52
2022-11-17T04:47:03.671Z,94.42
2022-11-17T04:49:35.675Z,94.41
2022-11-17T04:52:07.852Z,94.26
2022-11-17T04:54:39.575Z,94.01
2022-11-17T04:57:11.279Z,94.11
2022-11-17T04:59:43.046Z,93.68
2022-11-17T05:02:14.896Z,93.74
2022-11-17T05:04:58.620Z,93.79
2022-11-17T05:07:30.613Z,93.87
2022-11-17T05:10:02.351Z,93.77
2022-11-17T05:12:51.887Z,93.82
2022-11-17T05:15:44.117Z,93.92
2022-11-17T05:18:15.878Z,93.92
2022-11-17T05:20:47.617Z,93.90
2022-11-17T05:23:37.734Z,94.15
2022-11-17T05:26:09.704Z,94.40
2022-11-17T05:28:41.514Z,94.51
2022-11-17T05:31:13.744Z,94.59
2022-11-17T05:33:47.939Z,94.55
2022-11-17T05:36:20.195Z,94.71
2022-11-17T05:38:52.517Z,94.78
2022-11-17T05:41:25.125Z,94.78
2022-11-17T05:43:57.745Z,94.64
2022-11-17T05:46:29.656Z,94.71
2022-11-17T05:49:01.543Z,94.81
2022-11-17T05:51:33.459Z,94.95
2022-11-17T05:54:05.665Z,94.59
2022-11-17T05:56:43.444Z,94.73
2022-11-17T05:59:27.768Z,94.65
2022-11-17T06:02:04.794Z,94.72
2022-11-17T06:04:37.148Z,94.84
2022-11-17T06:07:09.634Z,94.97
2022-11-17T06:09:43.378Z,95.11
2022-11-17T06:12:15.561Z,94.99
2022-11-17T06:14:47.556Z,94.91
2022-11-17T06:17:24.157Z,94.84
2022-11-17T06:20:02.566Z,94.80
2022-11-17T06:22:33.682Z,95.05
2022-11-17T06:25:09.465Z,95.01
2022-11-17T06:27:42.472Z,94.94
2022-11-17T06:30:15.523Z,95.09
2022-11-17T06:32:49.622Z,95.01
2022-11-17T06:35:21.562Z,94.73
2022-11-17T06:37:53.383Z,94.78
2022-11-17T06:40:25.230Z,94.65
2022-11-17T06:43:08.695Z,94.58
2022-11-17T06:45:42.385Z,94.63
2022-11-17T06:48:16.510Z,94.74
2022-11-17T06:50:50.977Z,94.54
2022-11-17T06:53:26.516Z,94.62
2022-11-17T06:56:08.393Z,94.74
2022-11-17T06:58:41.469Z,94.59
2022-11-17T07:01:15.681Z,94.40
2022-11-17T07:03:47.531Z,94.54
2022-11-17T07:06:20.071Z,94.39
2022-11-17T07:08:52.092Z,94.53
2022-11-17T07:11:24.187Z,94.63
2022-11-17T07:13:56.097Z,94.28
2022-11-17T07:16:29.300Z,94.18
2022-11-17T07:19:03.576Z,94.15
2022-11-17T07:21:35.644Z,94.14
2022-11-17T07:24:08.749Z,94.18
2022-11-17T07:26:40.842Z,93.87
2022-11-17T07:29:12.738Z,93.79
2022-11-17T07:31:44.510Z,93.90
2022-11-17T07:34:16.433Z,93.79
2022-11-17T07:36:49.149Z,93.83
2022-11-17T07:39:21.949Z,93.66
2022-11-17T07:41:54.059Z,93.62
2022-11-17T07:44:25.949Z,93.53
2022-11-17T07:46:58.435Z,93.33
2022-11-17T07:49:30.965Z,93.38
2022-11-17T07:52:03.180Z,93.13
2022-11-17T07:54:35.031Z,93.11
2022-11-17T07:57:06.952Z,92.97
2022-11-17T07:59:38.662Z,92.99
2022-11-17T08:02:11.685Z,92.99
2022-11-17T08:04:43.497Z,92.98
2022-11-17T08:07:15.489Z,93.05
2022-11-17T08:09:47.477Z,93.23
2022-11-17T08:12:19.385Z,92.77
2022-11-17T08:14:51.792Z,92.48
2022-11-17T08:17:24.305Z,92.28
2022-11-17T08:19:56.178Z,92.43
2022-11-17T08:22:28.070Z,92.07
2022-11-17T08:24:59.898Z,91.78
2022-11-17T08:27:31.677Z,91.92
2022-11-17T08:30:03.725Z,91.88
2022-11-17T08:32:35.825Z,91.79
2022-11-17T08:35:09.126Z,92.04
2022-11-17T08:37:44.557Z,92.12
2022-11-17T08:40:18.149Z,92.11
2022-11-17T08:42:59.143Z,91.90
2022-11-17T08:45:32.683Z,91.97
2022-11-17T08:48:07.481Z,91.73
2022-11-17T08:50:39.448Z,91.39
2022-11-17T08:53:16.034Z,91.26
2022-11-17T08:55:48.244Z,90.69
2022-11-17T08:58:20.087Z,90.90
2022-11-17T09:00:52.143Z,90.56
2022-11-17T09:03:24.732Z,90.42
2022-11-17T09:05:56.800Z,90.73
2022-11-17T09:08:44.869Z,91.01
2022-11-17T09:11:18.334Z,91.13
2022-11-17T09:13:50.297Z,91.20
2022-11-17T09:16:24.171Z,91.34
2022-11-17T09:18:58.514Z,91.37
2022-11-17T09:21:31.718Z,91.55
2022-11-17T09:24:03.769Z,91.34
2022-11-17T09:26:35.926Z,90.89
2022-11-17T09:29:07.890Z,90.76
2022-11-17T09:31:39.770Z,90.87
2022-11-17T09:34:11.927Z,90.56
2022-11-17T09:36:44.018Z,90.48
2022-11-17T09:39:15.873Z,90.70
2022-11-17T09:41:49.555Z,90.60
2022-11-17T09:44:34.397Z,90.32
2022-11-17T09:47:18.061Z,90.22
2022-11-17T09:49:59.268Z,89.45
2022-11-17T09:52:36.180Z,89.74
2022-11-17T09:55:23.052Z,90.01
2022-11-17T09:58:01.693Z,89.52
2022-11-17T10:00:35.726Z,89.71
2022-11-17T10:03:17.891Z,89.94
2022-11-17T10:05:50.739Z,89.71
2022-11-17T10:08:29.434Z,90.01
2022-11-17T10:11:21.256Z,89.92
2022-11-17T10:13:53.989Z,90.08
2022-11-17T10:16:26.311Z,89.55
2022-11-17T10:18:58.400Z,89.75
2022-11-17T10:21:32.808Z,89.63
2022-11-17T10:24:05.055Z,89.28
2022-11-17T10:26:47.841Z,89.58
2022-11-17T10:29:25.333Z,89.28
2022-11-17T10:31:58.108Z,88.54
2022-11-17T10:34:40.771Z,88.51
2022-11-17T10:37:35.997Z,88.09
2022-11-17T10:40:24.762Z,87.83
2022-11-17T10:43:22.097Z,87.78
2022-11-17T10:45:56.535Z,87.93
2022-11-17T10:48:31.159Z,87.90
2022-11-17T10:51:09.271Z,88.61
2022-11-17T10:53:46.766Z,88.03
2022-11-17T10:56:22.110Z,88.14
2022-11-17T10:59:03.386Z,87.76
2022-11-17T11:01:37.873Z,87.49
2022-11-17T11:04:28.827Z,87.56
2022-11-17T11:07:14.759Z,88.05
2022-11-17T11:09:50.920Z,88.27
2022-11-17T11:12:33.215Z,87.46
2022-11-17T11:15:28.340Z,87.37
2022-11-17T11:18:00.294Z,87.79
2022-11-17T11:20:40.695Z,88.14
2022-11-17T11:23:22.244Z,87.82
2022-11-17T11:26:02.779Z,87.97
2022-11-17T11:28:54.530Z,87.78
2022-11-17T11:31:33.742Z,88.08
2022-11-17T11:34:20.596Z,88.57
2022-11-17T11:36:58.247Z,87.91
2022-11-17T11:39:42.439Z,88.10
2022-11-17T11:42:42.528Z,88.25
2022-11-17T11:45:22.305Z,88.50
2022-11-17T11:48:14.928Z,88.33
2022-11-17T11:50:56.100Z,88.50
2022-11-17T11:53:33.450Z,88.48
2022-11-17T11:56:19.849Z,88.03
2022-11-17T11:58:55.201Z,87.71
2022-11-17T12:01:30.085Z,87.78
2022-11-17T12:04:15.995Z,87.90
2022-11-17T12:06:57.067Z,87.69
2022-11-17T12:09:57.092Z,87.62
2022-11-17T12:12:32.838Z,88.19
2022-11-17T12:15:26.602Z,88.36
2022-11-17T12:18:12.726Z,88.17
2022-11-17T12:20:55.271Z,87.56
2022-11-17T12:23:49.387Z,87.53
2022-11-17T12:26:26.933Z,87.95
2022-11-17T12:29:32.590Z,88.42
2022-11-17T12:32:05.448Z,88.42
2022-11-17T12:34:37.967Z,87.66
2022-11-17T12:37:21.993Z,87.11
2022-11-17T12:40:31.178Z,87.28
2022-11-17T12:43:26.348Z,87.43
2022-11-17T12:46:12.564Z,87.85
2022-11-17T12:48:52.479Z,88.29
2022-11-17T12:51:31.957Z,88.04
2022-11-17T12:54:20.795Z,87.63
2022-11-17T12:56:57.924Z,87.53
2022-11-17T13:00:10.805Z,87.89
2022-11-17T13:03:00.184Z,88.27
2022-11-17T13:05:32.840Z,88.06
2022-11-17T13:08:27.447Z,88.43
2022-11-17T13:11:12.111Z,88.76
2022-11-17T13:13:46.928Z,88.75
2022-11-17T13:16:22.879Z,88.59
2022-11-17T13:18:54.653Z,88.25
2022-11-17T13:21:33.870Z,88.37
2022-11-17T13:24:06.153Z,88.76
2022-11-17T13:26:38.684Z,88.55
2022-11-17T13:29:13.592Z,88.38
2022-11-17T13:31:46.176Z,88.79
2022-11-17T13:34:21.263Z,89.19
2022-11-17T13:36:57.306Z,89.31
2022-11-17T13:39:29.900Z,89.78
2022-11-17T13:42:04.326Z,89.60
2022-11-17T13:44:36.498Z,89.68
2022-11-17T13:47:22.678Z,90.08
2022-11-17T13:49:55.270Z,90.04
2022-11-17T13:52:40.408Z,90.14
2022-11-17T13:55:21.298Z,90.17
2022-11-17T13:57:59.855Z,90.24
2022-11-17T14:00:32.556Z,90.33
2022-11-17T14:03:07.080Z,90.06
2022-11-17T14:05:38.835Z,90.15
2022-11-17T14:08:30.691Z,90.14
2022-11-17T14:11:22.321Z,90.23
2022-11-17T14:13:58.878Z,90.09
2022-11-17T14:16:35.839Z,90.28
2022-11-17T14:19:25.066Z,90.54
2022-11-17T14:22:04.551Z,90.41
2022-11-17T14:24:37.730Z,90.42
2022-11-17T14:27:34.726Z,90.41
2022-11-17T14:30:09.674Z,90.59
2022-11-17T14:32:41.427Z,90.54
2022-11-17T14:37:53.523Z,91.10
2022-11-17T14:40:25.319Z,91.46
2022-11-17T14:42:57.731Z,91.34
2022-11-17T14:45:29.905Z,91.60
2022-11-17T14:48:02.293Z,91.35
2022-11-17T14:50:34.939Z,91.15
2022-11-17T14:53:07.183Z,90.88
2022-11-17T14:55:38.976Z,91.11
2022-11-17T14:58:10.952Z,91.27
2022-11-17T15:00:42.693Z,91.58
2022-11-17T15:03:14.533Z,91.60
2022-11-17T15:05:49.298Z,91.69
2022-11-17T15:08:21.180Z,91.75
2022-11-17T15:10:55.402Z,91.66
2022-11-17T15:13:27.245Z,91.69
2022-11-17T15:16:05.939Z,91.75
2022-11-17T15:18:37.961Z,91.71
2022-11-17T15:21:11.566Z,91.87
2022-11-17T15:23:44.141Z,91.93
2022-11-17T15:26:18.783Z,91.99
2022-11-17T15:28:51.564Z,92.19
2022-11-17T15:31:23.721Z,92.12
2022-11-17T15:33:55.490Z,92.24
2022-11-17T15:36:27.258Z,92.42
2022-11-17T15:38:59.170Z,92.38
2022-11-17T15:41:32.981Z,92.46
2022-11-17T15:44:05.048Z,92.59
2022-11-17T15:46:37.222Z,92.65
2022-11-17T15:49:08.974Z,92.54
2022-11-17T15:51:40.813Z,92.57
2022-11-17T15:54:19.876Z,92.65
2022-11-17T15:56:52.187Z,92.77
2022-11-17T15:59:23.957Z,92.85
2022-11-17T16:01:55.698Z,92.50
2022-11-17T16:04:27.812Z,92.34
2022-11-17T16:06:59.850Z,92.32
2022-11-17T16:09:31.666Z,92.21
2022-11-17T16:12:03.829Z,92.17
2022-11-17T16:14:35.632Z,92.36
2022-11-17T16:17:07.389Z,92.55
2022-11-17T16:19:40.390Z,92.66
2022-11-17T16:22:12.182Z,92.70
2022-11-17T16:24:43.967Z,92.58
2022-11-17T16:27:15.807Z,92.57
2022-11-17T16:29:47.591Z,92.59
2022-11-17T16:32:19.324Z,92.41
2022-11-17T16:34:51.036Z,92.42
2022-11-17T16:37:22.738Z,92.61
2022-11-17T16:39:55.212Z,92.59
2022-11-17T16:42:27.001Z,92.34
2022-11-17T16:44:58.772Z,92.11
2022-11-17T16:47:30.696Z,92.00
2022-11-17T16:50:03.624Z,92.14
2022-11-17T16:52:36.353Z,92.36
2022-11-17T16:55:09.801Z,92.34
2022-11-17T16:57:42.339Z,92.12
2022-11-17T17:00:17.893Z,91.97
2022-11-17T17:02:52.514Z,92.26
2022-11-17T17:05:24.485Z,92.18
2022-11-17T17:07:56.653Z,92.32
2022-11-17T17:10:29.005Z,92.19
2022-11-17T17:13:00.775Z,92.08
2022-11-17T17:15:33.852Z,91.68
2022-11-17T17:18:05.908Z,91.74
2022-11-17T17:20:39.097Z,91.90
2022-11-17T17:23:11.330Z,91.90
2022-11-17T17:25:43.112Z,92.15
2022-11-17T17:28:14.842Z,92.13
2022-11-17T17:30:53.873Z,92.00
2022-11-17T17:33:26.521Z,91.98
2022-11-17T17:36:04.081Z,92.34
2022-11-17T17:38:36.352Z,92.06
2022-11-17T17:41:09.709Z,91.84
2022-11-17T17:43:42.593Z,91.90
2022-11-17T17:46:16.658Z,92.07
2022-11-17T17:48:48.391Z,92.24
2022-11-17T17:51:21.809Z,92.16
2022-11-17T17:53:54.416Z,92.08
2022-11-17T17:56:27.038Z,92.33
2022-11-17T17:58:59.658Z,92.53
2022-11-17T18:01:33.247Z,92.48
2022-11-17T18:04:05.603Z,92.50
2022-11-17T18:06:39.784Z,92.53
2022-11-17T18:09:14.616Z,92.50
2022-11-17T18:11:49.842Z,92.43
2022-11-17T18:14:24.670Z,92.30
2022-11-17T18:16:56.904Z,92.16
2022-11-17T18:22:14.267Z,92.35
2022-11-17T18:24:46.103Z,92.24
2022-11-17T18:27:17.862Z,92.25
2022-11-17T18:29:50.834Z,92.04
2022-11-17T18:32:22.635Z,92.11
2022-11-17T18:34:54.399Z,92.02
2022-11-17T18:37:26.159Z,91.85
2022-11-17T18:39:57.914Z,91.78
2022-11-17T18:42:30.651Z,91.98
2022-11-17T18:45:02.570Z,91.83
2022-11-17T18:47:34.321Z,91.77
2022-11-17T18:50:06.979Z,92.05
2022-11-17T18:52:38.774Z,91.94
2022-11-17T18:55:11.919Z,92.01
2022-11-17T18:57:46.234Z,92.04
2022-11-17T19:00:19.909Z,92.06
2022-11-17T19:02:51.922Z,92.35
2022-11-17T19:05:23.779Z,92.19
2022-11-17T19:07:57.493Z,92.00
2022-11-17T19:10:29.773Z,92.08
2022-11-17T19:13:01.904Z,92.40
2022-11-17T19:15:35.217Z,92.33
2022-11-17T19:18:07.076Z,91.78
2022-11-17T19:20:40.292Z,91.75
2022-11-17T19:23:12.282Z,91.73
2022-11-17T19:25:45.568Z,91.61
2022-11-17T19:28:18.087Z,91.64
2022-11-17T19:30:50.661Z,91.88
2022-11-17T19:33:22.471Z,91.75
2022-11-17T19:35:54.257Z,91.89
2022-11-17T19:38:26.014Z,91.90
2022-11-17T19:41:01.860Z,92.01
2022-11-17T19:43:40.307Z,91.65
2022-11-17T19:46:17.721Z,91.54
2022-11-17T19:48:50.770Z,91.67
2022-11-17T19:51:24.337Z,91.70
2022-11-17T19:53:57.907Z,91.67
2022-11-17T19:56:30.615Z,91.35
2022-11-17T19:59:03.072Z,91.39
2022-11-17T20:01:35.533Z,91.58
2022-11-17T20:04:07.738Z,91.82
2022-11-17T20:06:41.281Z,91.89
2022-11-17T20:09:14.663Z,91.92
2022-11-17T20:11:46.976Z,91.94
2022-11-17T20:14:18.809Z,91.77
2022-11-17T20:16:51.683Z,91.76
2022-11-17T20:19:23.560Z,91.54
2022-11-17T20:21:55.323Z,91.43
2022-11-17T20:24:27.050Z,91.58
2022-11-17T20:26:58.775Z,91.87
2022-11-17T20:29:31.443Z,91.66
2022-11-17T20:32:03.219Z,91.65
2022-11-17T20:34:34.975Z,91.44
2022-11-17T20:37:06.974Z,91.28
2022-11-17T20:39:38.775Z,91.36
2022-11-17T20:42:11.385Z,91.72
2022-11-17T20:44:43.699Z,92.12
2022-11-17T20:47:15.455Z,91.89
2022-11-17T20:49:47.212Z,91.55
2022-11-17T20:52:19.008Z,91.52
2022-11-17T20:54:51.040Z,91.59
2022-11-17T20:57:23.137Z,91.60
2022-11-17T20:59:54.911Z,91.94
2022-11-17T21:02:26.683Z,91.83
2022-11-17T21:04:58.433Z,91.84
2022-11-17T21:07:30.367Z,91.82
2022-11-17T21:10:02.322Z,92.08
2022-11-17T21:12:34.829Z,91.81
2022-11-17T21:15:07.834Z,91.95
2022-11-17T21:17:57.192Z,92.00
2022-11-17T21:20:29.177Z,91.56
2022-11-17T21:23:00.927Z,91.34
2022-11-17T21:25:32.677Z,91.47
2022-11-17T21:28:04.545Z,91.57
2022-11-17T21:30:36.353Z,91.28
2022-11-17T21:33:08.102Z,91.39
2022-11-17T21:35:39.847Z,91.35
2022-11-17T21:38:14.022Z,91.44
2022-11-17T21:40:45.826Z,91.63
2022-11-17T21:43:17.982Z,91.78
2022-11-17T21:45:49.719Z,91.63
2022-11-17T21:48:21.615Z,91.64
2022-11-17T21:50:53.481Z,91.58
2022-11-17T21:53:25.714Z,91.77
2022-11-17T21:56:02.479Z,91.89
2022-11-17T21:58:35.174Z,92.05
2022-11-17T22:01:11.391Z,91.97
2022-11-17T22:03:43.911Z,91.86
2022-11-17T22:06:18.184Z,91.77
2022-11-17T22:08:50.781Z,91.56
2022-11-17T22:11:36.571Z,91.39
2022-11-17T22:14:11.946Z,91.59
2022-11-17T22:16:45.245Z,91.62
2022-11-17T22:19:18.636Z,91.52
2022-11-17T22:21:52.763Z,91.68
2022-11-17T22:24:25.170Z,91.27
2022-11-17T22:26:56.940Z,91.35
2022-11-17T22:29:29.681Z,91.50
2022-11-17T22:32:01.425Z,91.16
2022-11-17T22:34:33.437Z,91.11
2022-11-17T22:37:05.176Z,91.19
2022-11-17T22:39:38.372Z,91.44
2022-11-17T22:42:10.206Z,91.68
2022-11-17T22:44:41.947Z,91.63
2022-11-17T22:47:13.919Z,91.54
2022-11-17T22:49:45.693Z,91.70
2022-11-17T22:52:17.659Z,91.85
2022-11-17T22:54:49.490Z,91.63
2022-11-17T22:57:21.279Z,91.14
2022-11-17T22:59:53.201Z,91.12
2022-11-17T23:02:25.004Z,91.10
2022-11-17T23:04:57.111Z,90.68
2022-11-17T23:07:29.001Z,90.68
2022-11-17T23:10:00.808Z,91.04
2022-11-17T23:12:32.598Z,91.15
2022-11-17T23:15:04.642Z,91.14
2022-11-17T23:17:36.431Z,90.93
2022-11-17T23:20:10.634Z,90.52
2022-11-17T23:22:42.521Z,90.67
2022-11-17T23:25:14.286Z,90.66
2022-11-17T23:27:46.054Z,90.83
2022-11-17T23:30:18.698Z,90.71
2022-11-17T23:32:53.618Z,90.48
2022-11-17T23:35:25.717Z,90.61
2022-11-17T23:37:57.460Z,90.55
2022-11-17T23:40:29.282Z,90.51
2022-11-17T23:43:01.195Z,90.57
2022-11-17T23:45:32.927Z,90.72
2022-11-17T23:48:04.814Z,90.91
2022-11-17T23:50:37.758Z,90.68
2022-11-17T23:53:09.738Z,90.92
2022-11-17T23:55:41.757Z,90.94
2022-11-17T23:58:13.526Z,91.05
